createdAt,value
2018-08-22T00:02:35.159Z,6.10
2018-08-22T00:07:38.431Z,6.00
2018-08-22T00:12:41.682Z,5.03
2018-08-22T00:17:45.008Z,8.33
2018-08-22T00:22:48.313Z,6.57
2018-08-22T00:27:51.611Z,5.27
2018-08-22T00:32:54.926Z,4.27
2018-08-22T00:37:58.198Z,6.50
2018-08-22T00:43:01.582Z,6.60
2018-08-22T00:48:04.838Z,8.10
2018-08-22T00:53:08.147Z,4.77
2018-08-22T00:58:11.166Z,6.07
2018-08-22T01:03:14.431Z,5.67
2018-08-22T01:08:17.793Z,6.00
2018-08-22T01:13:21.143Z,6.63
2018-08-22T01:18:24.438Z,8.20
2018-08-22T01:23:27.795Z,9.17
2018-08-22T01:28:31.118Z,5.83
2018-08-22T01:33:34.634Z,5.73
2018-08-22T01:38:37.997Z,6.90
2018-08-22T01:43:41.323Z,5.43
2018-08-22T01:48:44.631Z,7.03
2018-08-22T01:53:47.965Z,5.57
2018-08-22T01:58:51.402Z,8.47
2018-08-22T02:03:54.697Z,6.17
2018-08-22T02:08:58.079Z,4.87
2018-08-22T02:14:01.365Z,7.27
2018-08-22T02:19:04.867Z,7.90
2018-08-22T02:24:08.168Z,5.47
2018-08-22T02:29:11.570Z,5.23
2018-08-22T02:34:14.872Z,6.00
2018-08-22T02:39:18.238Z,8.53
2018-08-22T02:44:21.541Z,6.07
2018-08-22T02:49:24.882Z,6.97
2018-08-22T02:54:28.253Z,6.20
2018-08-22T02:59:31.578Z,6.60
2018-08-22T03:04:34.971Z,8.00
2018-08-22T03:09:38.286Z,5.80
2018-08-22T03:14:41.602Z,5.83
2018-08-22T03:19:45.044Z,8.43
2018-08-22T03:24:48.441Z,7.63
2018-08-22T03:29:51.789Z,4.50
2018-08-22T03:34:55.067Z,7.50
2018-08-22T03:39:58.478Z,7.80
2018-08-22T03:45:01.752Z,7.97
2018-08-22T03:50:05.464Z,7.27
2018-08-22T03:55:08.883Z,7.33
2018-08-22T04:00:12.334Z,9.23
2018-08-22T04:05:15.767Z,10.87
2018-08-22T04:10:19.059Z,8.23
2018-08-22T04:15:22.444Z,8.90
2018-08-22T04:20:25.761Z,7.60
2018-08-22T04:25:29.032Z,7.83
2018-08-22T04:30:32.427Z,7.37
2018-08-22T04:35:35.731Z,10.93
2018-08-22T04:40:39.063Z,8.37
2018-08-22T04:45:42.415Z,8.60
2018-08-22T04:50:45.810Z,7.50
2018-08-22T04:55:49.103Z,6.57
2018-08-22T05:00:52.499Z,9.53
2018-08-22T05:05:55.962Z,7.47
2018-08-22T05:10:59.311Z,9.40
2018-08-22T05:16:02.615Z,9.30
2018-08-22T05:21:08.999Z,8.13
2018-08-22T05:26:12.343Z,6.63
2018-08-22T05:31:15.840Z,12.10
2018-08-22T05:36:19.211Z,7.37
2018-08-22T05:41:22.571Z,10.30
2018-08-22T05:46:25.892Z,6.07
2018-08-22T05:51:29.255Z,5.37
2018-08-22T05:56:32.592Z,9.03
2018-08-22T06:01:35.901Z,6.37
2018-08-22T06:06:39.179Z,5.70
2018-08-22T06:11:43.632Z,6.07
2018-08-22T06:16:46.900Z,7.53
2018-08-22T06:21:50.337Z,6.23
2018-08-22T06:26:53.635Z,4.50
2018-08-22T06:31:56.978Z,6.67
2018-08-22T06:37:00.286Z,6.43
2018-08-22T06:42:03.551Z,8.77
2018-08-22T06:47:06.811Z,7.07
2018-08-22T06:52:10.106Z,9.17
2018-08-22T06:57:13.475Z,5.23
2018-08-22T07:02:16.704Z,6.53
2018-08-22T07:07:19.997Z,7.73
2018-08-22T07:12:23.243Z,6.57
2018-08-22T07:17:26.550Z,5.70
2018-08-22T07:22:29.882Z,6.00
2018-08-22T07:27:33.193Z,6.73
2018-08-22T07:32:36.528Z,5.07
2018-08-22T07:37:39.823Z,4.73
2018-08-22T07:42:43.086Z,4.77
2018-08-22T07:47:46.419Z,7.83
2018-08-22T07:53:05.125Z,8.00
2018-08-22T07:58:08.483Z,7.03
2018-08-22T08:03:11.795Z,5.60
2018-08-22T08:08:15.044Z,6.40
2018-08-22T08:13:23.788Z,6.87
2018-08-22T08:18:27.108Z,9.00
2018-08-22T08:23:30.414Z,8.97
2018-08-22T08:28:33.775Z,9.80
2018-08-22T08:33:37.044Z,5.78
2018-08-22T08:38:40.567Z,6.07
2018-08-22T08:43:43.811Z,11.80
2018-08-22T08:48:47.232Z,6.15
2018-08-22T08:53:50.503Z,4.95
2018-08-22T08:58:54.022Z,8.03
2018-08-22T09:03:57.563Z,8.10
2018-08-22T09:09:00.695Z,6.85
2018-08-22T09:14:04.029Z,4.95
2018-08-22T09:19:07.367Z,6.90
2018-08-22T09:24:11.057Z,6.55
2018-08-22T09:29:14.285Z,7.80
2018-08-22T09:34:17.643Z,6.08
2018-08-22T09:39:20.927Z,7.92
2018-08-22T09:44:24.233Z,8.43
2018-08-22T09:49:27.620Z,5.70
2018-08-22T09:54:30.984Z,6.20
2018-08-22T09:59:34.255Z,9.40
2018-08-22T10:04:37.523Z,7.60
2018-08-22T10:09:40.835Z,10.15
2018-08-22T10:14:44.123Z,5.28
2018-08-22T10:19:47.497Z,6.62
2018-08-22T10:24:50.452Z,5.62
2018-08-22T10:29:53.743Z,6.42
2018-08-22T10:34:57.042Z,7.95
2018-08-22T10:40:00.336Z,10.68
2018-08-22T10:45:03.656Z,6.05
2018-08-22T10:50:08.052Z,7.85
2018-08-22T10:55:11.340Z,7.28
2018-08-22T11:00:14.664Z,8.28
2018-08-22T11:05:17.949Z,9.85
2018-08-22T11:10:21.355Z,6.97
2018-08-22T11:15:24.724Z,5.60
2018-08-22T11:20:28.839Z,4.80
2018-08-22T11:25:43.379Z,10.88
2018-08-22T11:30:58.181Z,5.42
2018-08-22T11:36:00.444Z,6.78
2018-08-22T11:41:03.830Z,6.22
2018-08-22T11:46:07.221Z,7.55
2018-08-22T11:51:10.465Z,6.67
2018-08-22T11:56:13.995Z,6.08
2018-08-22T12:01:17.300Z,7.33
2018-08-22T12:06:20.652Z,8.90
2018-08-22T12:11:24.056Z,5.40
2018-08-22T12:16:27.310Z,7.03
2018-08-22T12:21:30.564Z,7.03
2018-08-22T12:26:34.055Z,6.97
2018-08-22T12:31:37.375Z,7.83
2018-08-22T12:36:40.694Z,5.40
2018-08-22T12:41:44.078Z,7.75
2018-08-22T12:46:47.418Z,5.00
2018-08-22T12:51:50.808Z,8.20
2018-08-22T12:56:54.059Z,5.92
2018-08-22T13:01:57.417Z,6.12
2018-08-22T13:07:00.670Z,6.62
2018-08-22T13:12:03.924Z,7.53
2018-08-22T13:17:07.331Z,5.78
2018-08-22T13:22:10.485Z,6.85
2018-08-22T13:27:13.890Z,7.15
2018-08-22T13:32:17.160Z,5.40
2018-08-22T13:37:20.469Z,7.95
2018-08-22T13:42:23.769Z,6.62
2018-08-22T13:47:27.184Z,5.45
2018-08-22T13:52:30.505Z,7.65
2018-08-22T13:57:33.788Z,7.40
2018-08-22T14:02:37.179Z,8.43
2018-08-22T14:07:40.428Z,6.42
2018-08-22T14:12:43.728Z,6.28
2018-08-22T14:17:46.982Z,8.53
2018-08-22T14:22:50.256Z,9.00
2018-08-22T14:27:53.669Z,5.75
2018-08-22T14:32:56.919Z,7.08
2018-08-22T14:38:00.318Z,9.25
2018-08-22T14:43:03.720Z,7.97
2018-08-22T14:48:06.981Z,8.30
2018-08-22T14:53:10.372Z,5.37
2018-08-22T14:58:13.663Z,5.50
2018-08-22T15:03:17.211Z,7.40
2018-08-22T15:08:20.227Z,6.13
2018-08-22T15:13:23.599Z,4.70
2018-08-22T15:18:26.879Z,4.87
2018-08-22T15:23:30.139Z,12.23
2018-08-22T15:28:33.187Z,6.22
2018-08-22T15:33:36.537Z,6.80
2018-08-22T15:38:39.827Z,6.85
2018-08-22T15:43:43.095Z,5.25
2018-08-22T15:48:46.374Z,8.83
2018-08-22T15:54:13.371Z,8.18
2018-08-22T15:59:18.324Z,7.55
2018-08-22T16:04:21.655Z,13.05
2018-08-22T16:09:30.431Z,7.70
2018-08-22T16:14:33.755Z,6.53
2018-08-22T16:19:37.081Z,10.20
2018-08-22T16:24:42.237Z,8.28
2018-08-22T16:29:45.592Z,5.80
2018-08-22T16:34:48.994Z,6.58
2018-08-22T16:39:52.360Z,6.50
2018-08-22T16:44:55.670Z,9.20
2018-08-22T16:49:58.921Z,6.00
2018-08-22T16:55:18.993Z,7.87
2018-08-22T17:00:37.124Z,6.97
2018-08-22T17:05:40.367Z,6.20
2018-08-22T17:10:54.159Z,6.28
2018-08-22T17:15:58.603Z,11.50
2018-08-22T17:21:01.858Z,6.33
2018-08-22T17:26:05.419Z,5.85
2018-08-22T17:31:09.265Z,5.28
2018-08-22T17:36:12.926Z,6.92
2018-08-22T17:41:16.710Z,5.42
2018-08-22T17:46:20.007Z,8.43
2018-08-22T17:51:23.379Z,6.35
2018-08-22T17:56:27.357Z,9.80
2018-08-22T18:01:30.720Z,10.00
2018-08-22T18:06:33.976Z,6.55
2018-08-22T18:11:37.287Z,6.17
2018-08-22T18:16:40.544Z,9.08
2018-08-22T18:21:46.507Z,7.03
2018-08-22T18:26:50.034Z,8.98
2018-08-22T18:31:53.404Z,9.65
2018-08-22T18:36:56.839Z,8.65
2018-08-22T18:42:00.155Z,9.00
2018-08-22T18:47:03.451Z,7.58
2018-08-22T18:52:06.767Z,9.23
2018-08-22T18:57:10.080Z,8.20
2018-08-22T19:02:13.367Z,7.17
2018-08-22T19:07:16.830Z,10.35
2018-08-22T19:12:20.691Z,9.35
2018-08-22T19:17:24.140Z,8.58
2018-08-22T19:22:27.393Z,9.78
2018-08-22T19:27:31.276Z,9.40
2018-08-22T19:32:34.600Z,8.98
2018-08-22T19:37:37.867Z,18.80
2018-08-22T19:42:41.368Z,8.75
2018-08-22T19:47:44.708Z,9.80
2018-08-22T19:52:48.022Z,10.72
2018-08-22T19:57:51.435Z,10.63
2018-08-22T20:02:54.840Z,12.37
2018-08-22T20:07:58.139Z,15.83
2018-08-22T20:13:01.695Z,14.40
2018-08-22T20:18:05.156Z,11.10
2018-08-22T20:23:08.505Z,9.78
2018-08-22T20:28:12.253Z,12.13
2018-08-22T20:33:15.567Z,15.90
2018-08-22T20:38:18.972Z,19.00
2018-08-22T20:43:27.588Z,14.30
2018-08-22T20:48:31.077Z,14.58
2018-08-22T20:53:34.369Z,23.50
2018-08-22T20:58:37.701Z,17.87
2018-08-22T21:03:41.054Z,16.67
2018-08-22T21:08:44.637Z,17.57
2018-08-22T21:13:47.932Z,10.17
2018-08-22T21:18:51.259Z,26.37
2018-08-22T21:23:54.611Z,17.17
2018-08-22T21:28:57.908Z,16.73
2018-08-22T21:34:07.054Z,19.13
2018-08-22T21:39:15.744Z,12.67
2018-08-22T21:44:21.024Z,22.90
2018-08-22T21:49:24.914Z,10.77
2018-08-22T21:54:28.395Z,16.17
2018-08-22T21:59:31.782Z,14.03
2018-08-22T22:04:36.262Z,12.57
2018-08-22T22:09:40.028Z,12.50
2018-08-22T22:14:44.016Z,12.30
2018-08-22T22:19:47.360Z,11.73
2018-08-22T22:24:56.162Z,13.60
2018-08-22T22:30:01.595Z,9.73
2018-08-22T22:35:05.167Z,10.27
2018-08-22T22:40:08.691Z,17.17
2018-08-22T22:45:12.260Z,8.53
2018-08-22T22:50:15.679Z,9.57
2018-08-22T22:55:19.111Z,11.33
2018-08-22T23:00:22.642Z,10.27
2018-08-22T23:05:30.133Z,13.40
2018-08-22T23:10:33.503Z,14.80
2018-08-22T23:15:36.763Z,13.00
2018-08-22T23:20:43.718Z,8.40
2018-08-22T23:25:47.059Z,7.83
2018-08-22T23:30:50.354Z,9.63
2018-08-22T23:35:53.643Z,11.27
2018-08-22T23:40:56.956Z,8.80
2018-08-22T23:46:00.286Z,10.43
2018-08-22T23:51:05.012Z,8.83
2018-08-22T23:56:27.123Z,8.53
